sensor_id;sensor_type;location;lat;lon;timestamp;P1;durP1;ratioP1;P2;durP2;ratioP2
4895;SDS011;2463;49.948;8.472;2022-08-01T00:00:04;88.10;;;3.60;;
4895;SDS011;2463;49.948;8.472;2022-08-01T00:02:34;86.90;;;3.57;;
4895;SDS011;2463;49.948;8.472;2022-08-01T00:05:02;87.07;;;3.80;;
4895;SDS011;2463;49.948;8.472;2022-08-01T00:07:28;87.30;;;3.63;;
4895;SDS011;2463;49.948;8.472;2022-08-01T00:09:55;89.07;;;3.83;;
4895;SDS011;2463;49.948;8.472;2022-08-01T00:12:22;86.40;;;3.90;;
4895;SDS011;2463;49.948;8.472;2022-08-01T00:14:49;87.27;;;3.67;;
4895;SDS011;2463;49.948;8.472;2022-08-01T00:17:15;87.27;;;3.80;;
4895;SDS011;2463;49.948;8.472;2022-08-01T00:19:42;87.00;;;3.90;;
4895;SDS011;2463;49.948;8.472;2022-08-01T00:22:09;88.80;;;4.00;;
4895;SDS011;2463;49.948;8.472;2022-08-01T00:24:35;87.30;;;3.77;;
4895;SDS011;2463;49.948;8.472;2022-08-01T00:27:02;86.87;;;4.00;;
4895;SDS011;2463;49.948;8.472;2022-08-01T00:29:29;86.90;;;3.67;;
4895;SDS011;2463;49.948;8.472;2022-08-01T00:32:16;86.80;;;3.83;;
4895;SDS011;2463;49.948;8.472;2022-08-01T00:34:43;86.73;;;3.70;;
4895;SDS011;2463;49.948;8.472;2022-08-01T00:37:09;86.57;;;3.57;;
4895;SDS011;2463;49.948;8.472;2022-08-01T00:39:41;89.63;;;3.67;;
4895;SDS011;2463;49.948;8.472;2022-08-01T00:42:11;86.70;;;3.40;;
4895;SDS011;2463;49.948;8.472;2022-08-01T00:44:39;86.30;;;3.60;;
4895;SDS011;2463;49.948;8.472;2022-08-01T00:47:06;87.40;;;3.60;;
4895;SDS011;2463;49.948;8.472;2022-08-01T00:49:33;87.77;;;3.50;;
4895;SDS011;2463;49.948;8.472;2022-08-01T00:52:00;87.07;;;3.90;;
4895;SDS011;2463;49.948;8.472;2022-08-01T00:54:31;88.97;;;4.03;;
4895;SDS011;2463;49.948;8.472;2022-08-01T00:56:58;86.77;;;3.77;;
4895;SDS011;2463;49.948;8.472;2022-08-01T00:59:25;87.30;;;3.60;;
4895;SDS011;2463;49.948;8.472;2022-08-01T01:01:53;87.20;;;3.30;;
4895;SDS011;2463;49.948;8.472;2022-08-01T01:04:20;87.40;;;3.70;;
4895;SDS011;2463;49.948;8.472;2022-08-01T01:15:17;87.67;;;3.50;;
4895;SDS011;2463;49.948;8.472;2022-08-01T01:18:03;86.87;;;3.50;;
4895;SDS011;2463;49.948;8.472;2022-08-01T01:20:53;87.57;;;3.70;;
4895;SDS011;2463;49.948;8.472;2022-08-01T01:26:19;89.30;;;3.93;;
4895;SDS011;2463;49.948;8.472;2022-08-01T01:29:08;88.40;;;3.93;;
4895;SDS011;2463;49.948;8.472;2022-08-01T01:31:44;88.40;;;3.90;;
4895;SDS011;2463;49.948;8.472;2022-08-01T01:34:16;89.27;;;4.50;;
4895;SDS011;2463;49.948;8.472;2022-08-01T01:36:44;87.50;;;3.93;;
4895;SDS011;2463;49.948;8.472;2022-08-01T01:39:13;89.70;;;3.93;;
4895;SDS011;2463;49.948;8.472;2022-08-01T01:41:41;90.13;;;4.40;;
4895;SDS011;2463;49.948;8.472;2022-08-01T01:44:10;88.97;;;4.30;;
4895;SDS011;2463;49.948;8.472;2022-08-01T01:46:37;90.47;;;4.30;;
4895;SDS011;2463;49.948;8.472;2022-08-01T01:49:05;87.47;;;4.03;;
4895;SDS011;2463;49.948;8.472;2022-08-01T01:51:36;90.30;;;4.60;;
4895;SDS011;2463;49.948;8.472;2022-08-01T01:54:05;90.20;;;4.10;;
4895;SDS011;2463;49.948;8.472;2022-08-01T01:56:34;88.87;;;4.20;;
4895;SDS011;2463;49.948;8.472;2022-08-01T01:59:19;88.70;;;4.13;;
4895;SDS011;2463;49.948;8.472;2022-08-01T02:01:51;88.60;;;4.50;;
4895;SDS011;2463;49.948;8.472;2022-08-01T02:04:31;89.27;;;4.60;;
4895;SDS011;2463;49.948;8.472;2022-08-01T02:07:02;88.47;;;3.90;;
4895;SDS011;2463;49.948;8.472;2022-08-01T02:09:29;90.07;;;4.40;;
4895;SDS011;2463;49.948;8.472;2022-08-01T02:11:58;89.07;;;4.03;;
4895;SDS011;2463;49.948;8.472;2022-08-01T02:14:34;89.67;;;4.67;;
4895;SDS011;2463;49.948;8.472;2022-08-01T02:17:01;89.47;;;4.00;;
4895;SDS011;2463;49.948;8.472;2022-08-01T02:19:30;89.87;;;4.43;;
4895;SDS011;2463;49.948;8.472;2022-08-01T02:22:50;88.30;;;3.90;;
4895;SDS011;2463;49.948;8.472;2022-08-01T02:24:54;91.87;;;4.30;;
4895;SDS011;2463;49.948;8.472;2022-08-01T02:27:26;91.93;;;4.33;;
4895;SDS011;2463;49.948;8.472;2022-08-01T02:30:01;94.33;;;4.10;;
4895;SDS011;2463;49.948;8.472;2022-08-01T02:32:37;89.07;;;4.47;;
4895;SDS011;2463;49.948;8.472;2022-08-01T02:35:23;88.60;;;4.10;;
4895;SDS011;2463;49.948;8.472;2022-08-01T02:37:53;88.60;;;4.03;;
4895;SDS011;2463;49.948;8.472;2022-08-01T02:40:23;88.50;;;3.97;;
4895;SDS011;2463;49.948;8.472;2022-08-01T02:42:52;89.37;;;4.30;;
4895;SDS011;2463;49.948;8.472;2022-08-01T02:45:22;89.57;;;4.07;;
4895;SDS011;2463;49.948;8.472;2022-08-01T02:47:53;89.10;;;3.90;;
4895;SDS011;2463;49.948;8.472;2022-08-01T02:50:25;88.20;;;3.87;;
4895;SDS011;2463;49.948;8.472;2022-08-01T02:52:54;88.97;;;4.18;;
4895;SDS011;2463;49.948;8.472;2022-08-01T02:55:23;88.67;;;3.87;;
4895;SDS011;2463;49.948;8.472;2022-08-01T02:57:50;89.10;;;4.10;;
4895;SDS011;2463;49.948;8.472;2022-08-01T03:00:25;90.63;;;4.93;;
4895;SDS011;2463;49.948;8.472;2022-08-01T03:02:53;88.80;;;4.00;;
4895;SDS011;2463;49.948;8.472;2022-08-01T03:05:22;92.70;;;4.13;;
4895;SDS011;2463;49.948;8.472;2022-08-01T03:07:51;89.57;;;3.93;;
4895;SDS011;2463;49.948;8.472;2022-08-01T03:10:26;91.13;;;4.33;;
4895;SDS011;2463;49.948;8.472;2022-08-01T03:12:55;91.47;;;4.30;;
4895;SDS011;2463;49.948;8.472;2022-08-01T03:15:24;93.17;;;4.57;;
4895;SDS011;2463;49.948;8.472;2022-08-01T03:17:55;89.60;;;4.17;;
4895;SDS011;2463;49.948;8.472;2022-08-01T03:20:25;89.13;;;4.40;;
4895;SDS011;2463;49.948;8.472;2022-08-01T03:22:53;91.20;;;4.40;;
4895;SDS011;2463;49.948;8.472;2022-08-01T03:25:21;92.17;;;4.53;;
4895;SDS011;2463;49.948;8.472;2022-08-01T03:27:51;89.90;;;4.50;;
4895;SDS011;2463;49.948;8.472;2022-08-01T03:30:24;89.83;;;4.20;;
4895;SDS011;2463;49.948;8.472;2022-08-01T03:32:52;89.87;;;4.27;;
4895;SDS011;2463;49.948;8.472;2022-08-01T03:35:20;90.40;;;4.53;;
4895;SDS011;2463;49.948;8.472;2022-08-01T03:37:50;91.77;;;4.40;;
4895;SDS011;2463;49.948;8.472;2022-08-01T03:40:47;89.10;;;4.03;;
4895;SDS011;2463;49.948;8.472;2022-08-01T03:43:19;90.37;;;4.83;;
4895;SDS011;2463;49.948;8.472;2022-08-01T03:45:52;90.63;;;4.50;;
4895;SDS011;2463;49.948;8.472;2022-08-01T03:48:22;90.68;;;4.63;;
4895;SDS011;2463;49.948;8.472;2022-08-01T03:50:54;91.87;;;4.30;;
4895;SDS011;2463;49.948;8.472;2022-08-01T03:53:22;94.83;;;4.57;;
4895;SDS011;2463;49.948;8.472;2022-08-01T03:55:51;91.80;;;5.00;;
4895;SDS011;2463;49.948;8.472;2022-08-01T03:58:19;91.67;;;5.10;;
4895;SDS011;2463;49.948;8.472;2022-08-01T04:00:47;89.87;;;4.50;;
4895;SDS011;2463;49.948;8.472;2022-08-01T04:03:15;91.90;;;5.73;;
4895;SDS011;2463;49.948;8.472;2022-08-01T04:05:42;97.20;;;5.20;;
4895;SDS011;2463;49.948;8.472;2022-08-01T04:08:09;89.73;;;4.37;;
4895;SDS011;2463;49.948;8.472;2022-08-01T04:10:37;90.20;;;4.60;;
4895;SDS011;2463;49.948;8.472;2022-08-01T04:13:03;93.77;;;5.10;;
4895;SDS011;2463;49.948;8.472;2022-08-01T04:15:30;89.78;;;4.40;;
4895;SDS011;2463;49.948;8.472;2022-08-01T04:17:57;91.07;;;4.63;;
4895;SDS011;2463;49.948;8.472;2022-08-01T04:20:23;90.32;;;4.50;;
4895;SDS011;2463;49.948;8.472;2022-08-01T04:22:51;92.20;;;4.65;;
4895;SDS011;2463;49.948;8.472;2022-08-01T04:25:32;90.53;;;4.55;;
4895;SDS011;2463;49.948;8.472;2022-08-01T04:28:01;93.93;;;4.93;;
4895;SDS011;2463;49.948;8.472;2022-08-01T04:30:31;90.33;;;4.70;;
4895;SDS011;2463;49.948;8.472;2022-08-01T04:33:00;91.80;;;5.20;;
4895;SDS011;2463;49.948;8.472;2022-08-01T04:35:28;89.97;;;4.70;;
4895;SDS011;2463;49.948;8.472;2022-08-01T04:38:18;94.00;;;4.45;;
4895;SDS011;2463;49.948;8.472;2022-08-01T04:40:49;91.47;;;4.80;;
4895;SDS011;2463;49.948;8.472;2022-08-01T04:43:18;91.63;;;4.90;;
4895;SDS011;2463;49.948;8.472;2022-08-01T04:45:45;90.43;;;4.80;;
4895;SDS011;2463;49.948;8.472;2022-08-01T04:48:15;90.53;;;4.40;;
4895;SDS011;2463;49.948;8.472;2022-08-01T04:50:47;89.85;;;4.30;;
4895;SDS011;2463;49.948;8.472;2022-08-01T04:53:15;90.17;;;5.00;;
4895;SDS011;2463;49.948;8.472;2022-08-01T04:55:44;94.67;;;4.83;;
4895;SDS011;2463;49.948;8.472;2022-08-01T04:58:14;92.47;;;5.13;;
4895;SDS011;2463;49.948;8.472;2022-08-01T05:00:44;90.25;;;4.53;;
4895;SDS011;2463;49.948;8.472;2022-08-01T05:03:14;91.47;;;4.50;;
4895;SDS011;2463;49.948;8.472;2022-08-01T05:05:41;90.80;;;4.43;;
4895;SDS011;2463;49.948;8.472;2022-08-01T05:08:07;92.00;;;4.70;;
4895;SDS011;2463;49.948;8.472;2022-08-01T05:10:34;90.47;;;4.77;;
4895;SDS011;2463;49.948;8.472;2022-08-01T05:13:01;89.97;;;4.30;;
4895;SDS011;2463;49.948;8.472;2022-08-01T05:15:27;90.37;;;4.63;;
4895;SDS011;2463;49.948;8.472;2022-08-01T05:17:54;91.07;;;5.33;;
4895;SDS011;2463;49.948;8.472;2022-08-01T05:20:22;91.60;;;4.80;;
4895;SDS011;2463;49.948;8.472;2022-08-01T05:22:49;92.82;;;5.05;;
4895;SDS011;2463;49.948;8.472;2022-08-01T05:25:16;90.20;;;4.70;;
4895;SDS011;2463;49.948;8.472;2022-08-01T05:27:45;90.40;;;4.50;;
4895;SDS011;2463;49.948;8.472;2022-08-01T05:30:14;89.83;;;4.43;;
4895;SDS011;2463;49.948;8.472;2022-08-01T05:32:41;89.87;;;4.70;;
4895;SDS011;2463;49.948;8.472;2022-08-01T05:35:08;90.23;;;4.40;;
4895;SDS011;2463;49.948;8.472;2022-08-01T05:37:35;96.70;;;4.87;;
4895;SDS011;2463;49.948;8.472;2022-08-01T05:40:02;88.80;;;4.20;;
4895;SDS011;2463;49.948;8.472;2022-08-01T05:42:29;88.93;;;4.30;;
4895;SDS011;2463;49.948;8.472;2022-08-01T05:44:56;89.40;;;4.40;;
4895;SDS011;2463;49.948;8.472;2022-08-01T05:47:23;91.27;;;4.37;;
4895;SDS011;2463;49.948;8.472;2022-08-01T05:49:49;91.80;;;5.10;;
4895;SDS011;2463;49.948;8.472;2022-08-01T05:52:16;91.17;;;4.27;;
4895;SDS011;2463;49.948;8.472;2022-08-01T05:54:43;91.17;;;4.40;;
4895;SDS011;2463;49.948;8.472;2022-08-01T05:57:10;88.13;;;4.00;;
4895;SDS011;2463;49.948;8.472;2022-08-01T05:59:37;88.83;;;4.10;;
4895;SDS011;2463;49.948;8.472;2022-08-01T06:02:04;92.53;;;4.20;;
4895;SDS011;2463;49.948;8.472;2022-08-01T06:04:31;88.37;;;4.33;;
4895;SDS011;2463;49.948;8.472;2022-08-01T06:06:58;87.40;;;3.70;;
4895;SDS011;2463;49.948;8.472;2022-08-01T06:09:24;87.40;;;4.00;;
4895;SDS011;2463;49.948;8.472;2022-08-01T06:11:51;88.00;;;4.07;;
4895;SDS011;2463;49.948;8.472;2022-08-01T06:14:18;87.30;;;3.73;;
4895;SDS011;2463;49.948;8.472;2022-08-01T06:16:45;87.90;;;4.10;;
4895;SDS011;2463;49.948;8.472;2022-08-01T06:19:12;89.83;;;3.80;;
4895;SDS011;2463;49.948;8.472;2022-08-01T06:21:38;88.60;;;4.03;;
4895;SDS011;2463;49.948;8.472;2022-08-01T06:24:05;88.10;;;3.63;;
4895;SDS011;2463;49.948;8.472;2022-08-01T06:26:32;87.57;;;3.80;;
4895;SDS011;2463;49.948;8.472;2022-08-01T06:28:59;87.80;;;3.73;;
4895;SDS011;2463;49.948;8.472;2022-08-01T06:31:25;88.47;;;3.83;;
4895;SDS011;2463;49.948;8.472;2022-08-01T06:33:58;87.37;;;3.97;;
4895;SDS011;2463;49.948;8.472;2022-08-01T06:36:25;87.30;;;4.00;;
4895;SDS011;2463;49.948;8.472;2022-08-01T06:38:52;86.90;;;3.83;;
4895;SDS011;2463;49.948;8.472;2022-08-01T06:41:18;87.40;;;3.90;;
4895;SDS011;2463;49.948;8.472;2022-08-01T06:43:45;85.90;;;3.63;;
4895;SDS011;2463;49.948;8.472;2022-08-01T06:46:12;87.80;;;3.80;;
4895;SDS011;2463;49.948;8.472;2022-08-01T06:48:38;87.67;;;3.67;;
4895;SDS011;2463;49.948;8.472;2022-08-01T06:51:05;86.17;;;3.80;;
4895;SDS011;2463;49.948;8.472;2022-08-01T06:53:36;86.67;;;3.83;;
4895;SDS011;2463;49.948;8.472;2022-08-01T06:56:04;85.70;;;3.60;;
4895;SDS011;2463;49.948;8.472;2022-08-01T06:58:31;84.57;;;3.57;;
4895;SDS011;2463;49.948;8.472;2022-08-01T07:01:00;85.37;;;3.30;;
4895;SDS011;2463;49.948;8.472;2022-08-01T07:03:30;82.27;;;3.00;;
4895;SDS011;2463;49.948;8.472;2022-08-01T07:06:17;83.07;;;3.00;;
4895;SDS011;2463;49.948;8.472;2022-08-01T07:08:44;82.10;;;3.43;;
4895;SDS011;2463;49.948;8.472;2022-08-01T07:11:10;81.43;;;2.80;;
4895;SDS011;2463;49.948;8.472;2022-08-01T07:13:37;78.67;;;2.53;;
4895;SDS011;2463;49.948;8.472;2022-08-01T07:16:11;79.20;;;2.40;;
4895;SDS011;2463;49.948;8.472;2022-08-01T07:18:38;80.17;;;2.77;;
4895;SDS011;2463;49.948;8.472;2022-08-01T07:21:05;78.67;;;2.60;;
4895;SDS011;2463;49.948;8.472;2022-08-01T07:23:41;78.93;;;2.50;;
4895;SDS011;2463;49.948;8.472;2022-08-01T07:26:11;78.90;;;2.60;;
4895;SDS011;2463;49.948;8.472;2022-08-01T07:28:39;77.87;;;2.43;;
4895;SDS011;2463;49.948;8.472;2022-08-01T07:31:09;79.47;;;2.47;;
4895;SDS011;2463;49.948;8.472;2022-08-01T07:33:36;79.97;;;2.60;;
4895;SDS011;2463;49.948;8.472;2022-08-01T07:36:14;82.20;;;2.90;;
4895;SDS011;2463;49.948;8.472;2022-08-01T07:38:45;79.27;;;2.60;;
4895;SDS011;2463;49.948;8.472;2022-08-01T07:41:12;80.80;;;3.20;;
4895;SDS011;2463;49.948;8.472;2022-08-01T07:43:39;81.20;;;2.60;;
4895;SDS011;2463;49.948;8.472;2022-08-01T07:46:07;82.30;;;2.80;;
4895;SDS011;2463;49.948;8.472;2022-08-01T07:48:33;81.80;;;2.90;;
4895;SDS011;2463;49.948;8.472;2022-08-01T07:51:00;83.10;;;3.27;;
4895;SDS011;2463;49.948;8.472;2022-08-01T07:53:27;84.47;;;3.17;;
4895;SDS011;2463;49.948;8.472;2022-08-01T07:55:55;83.17;;;3.60;;
4895;SDS011;2463;49.948;8.472;2022-08-01T07:58:21;83.07;;;3.33;;
4895;SDS011;2463;49.948;8.472;2022-08-01T08:00:48;83.60;;;3.37;;
4895;SDS011;2463;49.948;8.472;2022-08-01T08:03:15;83.30;;;3.40;;
4895;SDS011;2463;49.948;8.472;2022-08-01T08:05:42;83.77;;;3.40;;
4895;SDS011;2463;49.948;8.472;2022-08-01T08:08:24;83.17;;;3.57;;
4895;SDS011;2463;49.948;8.472;2022-08-01T08:10:50;85.60;;;3.67;;
4895;SDS011;2463;49.948;8.472;2022-08-01T08:13:17;83.40;;;3.53;;
4895;SDS011;2463;49.948;8.472;2022-08-01T08:15:46;85.90;;;3.90;;
4895;SDS011;2463;49.948;8.472;2022-08-01T08:18:13;83.30;;;3.90;;
4895;SDS011;2463;49.948;8.472;2022-08-01T08:20:40;85.33;;;3.73;;
4895;SDS011;2463;49.948;8.472;2022-08-01T08:23:07;83.10;;;3.43;;
4895;SDS011;2463;49.948;8.472;2022-08-01T08:26:09;83.07;;;3.13;;
4895;SDS011;2463;49.948;8.472;2022-08-01T08:28:37;84.57;;;3.33;;
4895;SDS011;2463;49.948;8.472;2022-08-01T08:31:05;85.70;;;4.60;;
4895;SDS011;2463;49.948;8.472;2022-08-01T08:33:50;84.20;;;3.60;;
4895;SDS011;2463;49.948;8.472;2022-08-01T08:36:17;84.27;;;3.67;;
4895;SDS011;2463;49.948;8.472;2022-08-01T08:38:44;85.73;;;4.43;;
4895;SDS011;2463;49.948;8.472;2022-08-01T08:41:11;88.40;;;4.50;;
4895;SDS011;2463;49.948;8.472;2022-08-01T08:43:45;85.83;;;4.40;;
4895;SDS011;2463;49.948;8.472;2022-08-01T08:46:13;85.30;;;3.73;;
4895;SDS011;2463;49.948;8.472;2022-08-01T08:48:41;85.70;;;4.00;;
4895;SDS011;2463;49.948;8.472;2022-08-01T08:51:08;85.67;;;4.30;;
4895;SDS011;2463;49.948;8.472;2022-08-01T08:53:38;85.40;;;3.90;;
4895;SDS011;2463;49.948;8.472;2022-08-01T08:56:10;86.50;;;4.00;;
4895;SDS011;2463;49.948;8.472;2022-08-01T08:58:45;85.07;;;3.90;;
4895;SDS011;2463;49.948;8.472;2022-08-01T09:01:12;84.90;;;4.30;;
4895;SDS011;2463;49.948;8.472;2022-08-01T09:03:40;85.60;;;4.03;;
4895;SDS011;2463;49.948;8.472;2022-08-01T09:06:07;84.50;;;4.10;;
4895;SDS011;2463;49.948;8.472;2022-08-01T09:08:34;85.10;;;4.20;;
4895;SDS011;2463;49.948;8.472;2022-08-01T09:11:02;85.33;;;4.20;;
4895;SDS011;2463;49.948;8.472;2022-08-01T09:13:29;83.17;;;3.60;;
4895;SDS011;2463;49.948;8.472;2022-08-01T09:15:56;83.07;;;3.57;;
4895;SDS011;2463;49.948;8.472;2022-08-01T09:26:30;82.40;;;3.40;;
4895;SDS011;2463;49.948;8.472;2022-08-01T09:28:59;83.73;;;3.57;;
4895;SDS011;2463;49.948;8.472;2022-08-01T09:31:39;84.10;;;4.57;;
4895;SDS011;2463;49.948;8.472;2022-08-01T09:34:13;82.73;;;3.50;;
4895;SDS011;2463;49.948;8.472;2022-08-01T09:37:14;80.97;;;3.10;;
4895;SDS011;2463;49.948;8.472;2022-08-01T09:39:35;81.80;;;3.20;;
4895;SDS011;2463;49.948;8.472;2022-08-01T09:42:19;80.97;;;3.17;;
4895;SDS011;2463;49.948;8.472;2022-08-01T09:44:54;81.07;;;3.13;;
4895;SDS011;2463;49.948;8.472;2022-08-01T09:47:21;80.90;;;3.30;;
4895;SDS011;2463;49.948;8.472;2022-08-01T09:49:54;80.87;;;3.30;;
4895;SDS011;2463;49.948;8.472;2022-08-01T09:52:25;80.77;;;3.40;;
4895;SDS011;2463;49.948;8.472;2022-08-01T09:55:04;81.70;;;3.80;;
4895;SDS011;2463;49.948;8.472;2022-08-01T09:57:32;81.43;;;3.30;;
4895;SDS011;2463;49.948;8.472;2022-08-01T09:59:59;82.10;;;3.60;;
4895;SDS011;2463;49.948;8.472;2022-08-01T10:05:06;81.53;;;3.77;;
4895;SDS011;2463;49.948;8.472;2022-08-01T10:08:00;82.00;;;3.67;;
4895;SDS011;2463;49.948;8.472;2022-08-01T10:10:33;81.07;;;3.30;;
4895;SDS011;2463;49.948;8.472;2022-08-01T10:13:02;82.30;;;3.53;;
4895;SDS011;2463;49.948;8.472;2022-08-01T10:15:30;83.57;;;3.23;;
4895;SDS011;2463;49.948;8.472;2022-08-01T10:18:04;83.17;;;4.00;;
4895;SDS011;2463;49.948;8.472;2022-08-01T10:20:51;83.20;;;3.73;;
4895;SDS011;2463;49.948;8.472;2022-08-01T10:23:24;81.87;;;3.77;;
4895;SDS011;2463;49.948;8.472;2022-08-01T10:26:06;82.80;;;3.90;;
4895;SDS011;2463;49.948;8.472;2022-08-01T10:28:35;82.80;;;3.90;;
4895;SDS011;2463;49.948;8.472;2022-08-01T10:31:05;82.07;;;3.43;;
4895;SDS011;2463;49.948;8.472;2022-08-01T10:33:39;81.37;;;3.30;;
4895;SDS011;2463;49.948;8.472;2022-08-01T10:36:21;80.93;;;3.30;;
4895;SDS011;2463;49.948;8.472;2022-08-01T10:38:51;82.47;;;3.50;;
4895;SDS011;2463;49.948;8.472;2022-08-01T10:41:19;80.83;;;3.40;;
4895;SDS011;2463;49.948;8.472;2022-08-01T10:43:47;80.77;;;3.63;;
4895;SDS011;2463;49.948;8.472;2022-08-01T10:46:14;80.67;;;3.30;;
4895;SDS011;2463;49.948;8.472;2022-08-01T10:48:44;82.70;;;3.93;;
4895;SDS011;2463;49.948;8.472;2022-08-01T10:51:19;81.00;;;3.50;;
4895;SDS011;2463;49.948;8.472;2022-08-01T10:53:52;80.40;;;3.50;;
4895;SDS011;2463;49.948;8.472;2022-08-01T10:56:22;80.17;;;3.30;;
4895;SDS011;2463;49.948;8.472;2022-08-01T10:58:55;79.17;;;2.93;;
4895;SDS011;2463;49.948;8.472;2022-08-01T11:01:31;80.47;;;3.30;;
4895;SDS011;2463;49.948;8.472;2022-08-01T11:04:04;79.70;;;3.17;;
4895;SDS011;2463;49.948;8.472;2022-08-01T11:07:01;80.63;;;3.20;;
4895;SDS011;2463;49.948;8.472;2022-08-01T11:09:37;79.77;;;3.23;;
4895;SDS011;2463;49.948;8.472;2022-08-01T11:17:35;80.53;;;3.10;;
4895;SDS011;2463;49.948;8.472;2022-08-01T11:20:11;80.17;;;3.20;;
4895;SDS011;2463;49.948;8.472;2022-08-01T11:28:25;77.87;;;2.60;;
4895;SDS011;2463;49.948;8.472;2022-08-01T11:41:15;78.13;;;2.87;;
4895;SDS011;2463;49.948;8.472;2022-08-01T11:44:07;78.00;;;2.73;;
4895;SDS011;2463;49.948;8.472;2022-08-01T11:52:11;80.70;;;3.00;;
4895;SDS011;2463;49.948;8.472;2022-08-01T11:55:19;82.43;;;2.87;;
4895;SDS011;2463;49.948;8.472;2022-08-01T11:57:41;79.70;;;2.70;;
4895;SDS011;2463;49.948;8.472;2022-08-01T12:00:15;79.70;;;3.13;;
4895;SDS011;2463;49.948;8.472;2022-08-01T12:02:53;78.80;;;3.00;;
4895;SDS011;2463;49.948;8.472;2022-08-01T12:05:30;79.60;;;3.13;;
4895;SDS011;2463;49.948;8.472;2022-08-01T12:07:59;77.77;;;2.73;;
4895;SDS011;2463;49.948;8.472;2022-08-01T12:10:28;79.53;;;2.83;;
4895;SDS011;2463;49.948;8.472;2022-08-01T12:13:12;77.87;;;2.70;;
4895;SDS011;2463;49.948;8.472;2022-08-01T12:15:39;78.60;;;3.00;;
4895;SDS011;2463;49.948;8.472;2022-08-01T12:18:06;78.27;;;2.77;;
4895;SDS011;2463;49.948;8.472;2022-08-01T12:20:40;78.10;;;2.63;;
4895;SDS011;2463;49.948;8.472;2022-08-01T12:23:22;83.67;;;2.87;;
4895;SDS011;2463;49.948;8.472;2022-08-01T12:25:52;78.77;;;2.90;;
4895;SDS011;2463;49.948;8.472;2022-08-01T12:28:19;78.00;;;2.93;;
4895;SDS011;2463;49.948;8.472;2022-08-01T12:30:47;77.30;;;2.47;;
4895;SDS011;2463;49.948;8.472;2022-08-01T12:33:16;77.97;;;2.70;;
4895;SDS011;2463;49.948;8.472;2022-08-01T12:35:45;77.27;;;2.77;;
4895;SDS011;2463;49.948;8.472;2022-08-01T12:38:14;78.07;;;2.33;;
4895;SDS011;2463;49.948;8.472;2022-08-01T12:40:42;76.90;;;2.50;;
4895;SDS011;2463;49.948;8.472;2022-08-01T12:43:15;77.07;;;2.67;;
4895;SDS011;2463;49.948;8.472;2022-08-01T12:45:53;76.13;;;2.20;;
4895;SDS011;2463;49.948;8.472;2022-08-01T12:48:23;76.30;;;2.30;;
4895;SDS011;2463;49.948;8.472;2022-08-01T12:50:51;76.17;;;2.37;;
4895;SDS011;2463;49.948;8.472;2022-08-01T12:53:19;77.80;;;2.60;;
4895;SDS011;2463;49.948;8.472;2022-08-01T12:55:51;77.27;;;2.40;;
4895;SDS011;2463;49.948;8.472;2022-08-01T12:58:29;77.33;;;2.70;;
4895;SDS011;2463;49.948;8.472;2022-08-01T13:01:04;77.60;;;2.80;;
4895;SDS011;2463;49.948;8.472;2022-08-01T13:03:33;77.63;;;2.83;;
4895;SDS011;2463;49.948;8.472;2022-08-01T13:05:59;77.07;;;2.40;;
4895;SDS011;2463;49.948;8.472;2022-08-01T13:08:30;77.60;;;2.70;;
4895;SDS011;2463;49.948;8.472;2022-08-01T13:11:03;77.40;;;2.33;;
4895;SDS011;2463;49.948;8.472;2022-08-01T13:13:39;78.47;;;2.60;;
4895;SDS011;2463;49.948;8.472;2022-08-01T13:16:08;77.87;;;2.60;;
4895;SDS011;2463;49.948;8.472;2022-08-01T13:18:47;79.40;;;2.97;;
4895;SDS011;2463;49.948;8.472;2022-08-01T13:21:17;77.97;;;2.40;;
4895;SDS011;2463;49.948;8.472;2022-08-01T13:24:05;78.40;;;2.67;;
4895;SDS011;2463;49.948;8.472;2022-08-01T13:29:14;79.20;;;3.17;;
4895;SDS011;2463;49.948;8.472;2022-08-01T13:31:42;78.53;;;2.57;;
4895;SDS011;2463;49.948;8.472;2022-08-01T13:34:09;78.57;;;2.70;;
4895;SDS011;2463;49.948;8.472;2022-08-01T13:36:37;78.33;;;2.67;;
4895;SDS011;2463;49.948;8.472;2022-08-01T13:39:04;78.00;;;2.87;;
4895;SDS011;2463;49.948;8.472;2022-08-01T13:41:57;78.20;;;2.63;;
4895;SDS011;2463;49.948;8.472;2022-08-01T13:44:24;77.97;;;2.50;;
4895;SDS011;2463;49.948;8.472;2022-08-01T13:46:50;79.10;;;2.70;;
4895;SDS011;2463;49.948;8.472;2022-08-01T13:49:17;78.80;;;2.90;;
4895;SDS011;2463;49.948;8.472;2022-08-01T13:51:45;78.50;;;2.97;;
4895;SDS011;2463;49.948;8.472;2022-08-01T13:54:12;79.33;;;2.90;;
4895;SDS011;2463;49.948;8.472;2022-08-01T13:56:39;79.07;;;2.90;;
4895;SDS011;2463;49.948;8.472;2022-08-01T13:59:06;78.27;;;2.60;;
4895;SDS011;2463;49.948;8.472;2022-08-01T14:01:32;79.07;;;2.80;;
4895;SDS011;2463;49.948;8.472;2022-08-01T14:04:00;78.67;;;2.60;;
4895;SDS011;2463;49.948;8.472;2022-08-01T14:06:28;79.17;;;2.97;;
4895;SDS011;2463;49.948;8.472;2022-08-01T14:08:55;78.73;;;2.70;;
4895;SDS011;2463;49.948;8.472;2022-08-01T14:11:22;78.90;;;2.67;;
4895;SDS011;2463;49.948;8.472;2022-08-01T14:13:49;78.90;;;2.87;;
4895;SDS011;2463;49.948;8.472;2022-08-01T14:16:16;79.50;;;2.90;;
4895;SDS011;2463;49.948;8.472;2022-08-01T14:18:44;86.00;;;2.63;;
4895;SDS011;2463;49.948;8.472;2022-08-01T14:21:12;80.07;;;3.10;;
4895;SDS011;2463;49.948;8.472;2022-08-01T14:23:39;79.93;;;2.90;;
4895;SDS011;2463;49.948;8.472;2022-08-01T14:26:06;79.47;;;2.90;;
4895;SDS011;2463;49.948;8.472;2022-08-01T14:28:37;79.50;;;2.90;;
4895;SDS011;2463;49.948;8.472;2022-08-01T14:31:05;79.30;;;2.87;;
4895;SDS011;2463;49.948;8.472;2022-08-01T14:33:32;78.87;;;2.63;;
4895;SDS011;2463;49.948;8.472;2022-08-01T14:35:59;79.47;;;2.90;;
4895;SDS011;2463;49.948;8.472;2022-08-01T14:38:46;81.90;;;3.20;;
4895;SDS011;2463;49.948;8.472;2022-08-01T14:41:14;79.77;;;3.50;;
4895;SDS011;2463;49.948;8.472;2022-08-01T14:43:41;79.87;;;2.97;;
4895;SDS011;2463;49.948;8.472;2022-08-01T14:46:08;81.10;;;3.30;;
4895;SDS011;2463;49.948;8.472;2022-08-01T14:48:36;80.00;;;3.27;;
4895;SDS011;2463;49.948;8.472;2022-08-01T14:51:02;79.83;;;3.33;;
4895;SDS011;2463;49.948;8.472;2022-08-01T14:53:30;80.17;;;3.30;;
4895;SDS011;2463;49.948;8.472;2022-08-01T14:56:01;80.50;;;3.00;;
4895;SDS011;2463;49.948;8.472;2022-08-01T14:58:28;81.80;;;3.63;;
4895;SDS011;2463;49.948;8.472;2022-08-01T15:00:55;81.47;;;3.47;;
4895;SDS011;2463;49.948;8.472;2022-08-01T15:03:24;81.07;;;3.53;;
4895;SDS011;2463;49.948;8.472;2022-08-01T15:05:51;80.97;;;3.50;;
4895;SDS011;2463;49.948;8.472;2022-08-01T15:08:17;82.90;;;3.60;;
4895;SDS011;2463;49.948;8.472;2022-08-01T15:10:44;81.77;;;3.60;;
4895;SDS011;2463;49.948;8.472;2022-08-01T15:13:11;84.27;;;3.50;;
4895;SDS011;2463;49.948;8.472;2022-08-01T15:15:38;83.30;;;3.30;;
4895;SDS011;2463;49.948;8.472;2022-08-01T15:18:04;85.47;;;3.50;;
4895;SDS011;2463;49.948;8.472;2022-08-01T15:20:31;82.47;;;3.33;;
4895;SDS011;2463;49.948;8.472;2022-08-01T15:22:59;85.27;;;4.17;;
4895;SDS011;2463;49.948;8.472;2022-08-01T15:25:25;86.20;;;3.57;;
4895;SDS011;2463;49.948;8.472;2022-08-01T15:28:07;91.00;;;3.43;;
4895;SDS011;2463;49.948;8.472;2022-08-01T15:30:38;86.77;;;3.67;;
4895;SDS011;2463;49.948;8.472;2022-08-01T15:33:05;85.17;;;3.77;;
4895;SDS011;2463;49.948;8.472;2022-08-01T15:35:32;85.13;;;3.60;;
4895;SDS011;2463;49.948;8.472;2022-08-01T15:37:59;86.57;;;4.27;;
4895;SDS011;2463;49.948;8.472;2022-08-01T15:40:26;86.47;;;4.00;;
4895;SDS011;2463;49.948;8.472;2022-08-01T15:42:54;88.93;;;4.10;;
4895;SDS011;2463;49.948;8.472;2022-08-01T15:45:21;87.87;;;4.40;;
4895;SDS011;2463;49.948;8.472;2022-08-01T15:48:08;87.17;;;4.27;;
4895;SDS011;2463;49.948;8.472;2022-08-01T15:50:34;89.40;;;4.73;;
4895;SDS011;2463;49.948;8.472;2022-08-01T15:53:03;93.90;;;5.00;;
4895;SDS011;2463;49.948;8.472;2022-08-01T15:55:34;90.63;;;4.70;;
4895;SDS011;2463;49.948;8.472;2022-08-01T15:58:03;91.67;;;4.80;;
4895;SDS011;2463;49.948;8.472;2022-08-01T16:00:30;91.10;;;5.23;;
4895;SDS011;2463;49.948;8.472;2022-08-01T16:03:04;89.87;;;5.00;;
4895;SDS011;2463;49.948;8.472;2022-08-01T16:05:31;86.63;;;3.90;;
4895;SDS011;2463;49.948;8.472;2022-08-01T16:07:58;88.07;;;4.57;;
4895;SDS011;2463;49.948;8.472;2022-08-01T16:10:27;87.90;;;4.73;;